<?xml version="1.0" encoding="UTF-8" standalone="no" ?>
<gpx xmlns="http://www.topografix.com/GPX/1/1" xmlns:xsi="http://www.w3.org/2001/XMLSchema-instance" xsi:schemaLocation="http://www.topografix.com/GPX/1/1 http://www.topografix.com/GPX/1/1/gpx.xsd" version="1.1" creator="VisuGPX - https://www.visugpx.com">
  <metadata>
    <name>CO mannival</name>
    <desc><![CDATA[Manche du challenge grenoblois 2012 organisé par le Dauphiné O]]></desc>
  </metadata>
  <trk>
    <name><![CDATA[Co manival]]></name>
    <desc><![CDATA[pas terrible, je me suis mis vite dans le rouge
]]></desc>
    <trkseg>
      <trkpt lat="45.2667" lon="5.84223">
        <ele>463</ele>
        <time>2012-05-30T16:17:50.000Z</time>
      </trkpt>
      <trkpt lat="45.26671" lon="5.84227">
        <ele>465.39999389648</ele>
        <time>2012-05-30T16:17:54.000Z</time>
      </trkpt>
      <trkpt lat="45.26676" lon="5.84233">
        <ele>465.79998779297</ele>
        <time>2012-05-30T16:17:59.000Z</time>
      </trkpt>
      <trkpt lat="45.26681" lon="5.84254">
        <ele>466.20001220703</ele>
        <time>2012-05-30T16:18:03.000Z</time>
      </trkpt>
      <trkpt lat="45.26686" lon="5.84269">
        <ele>465.79998779297</ele>
        <time>2012-05-30T16:18:05.000Z</time>
      </trkpt>
      <trkpt lat="45.26699" lon="5.8429">
        <ele>465.39999389648</ele>
        <time>2012-05-30T16:18:09.000Z</time>
      </trkpt>
      <trkpt lat="45.2671" lon="5.84286">
        <ele>468.20001220703</ele>
        <time>2012-05-30T16:18:13.000Z</time>
      </trkpt>
      <trkpt lat="45.26719" lon="5.84279">
        <ele>470.20001220703</ele>
        <time>2012-05-30T16:18:17.000Z</time>
      </trkpt>
      <trkpt lat="45.26723" lon="5.84281">
        <ele>464.79998779297</ele>
        <time>2012-05-30T16:18:21.000Z</time>
      </trkpt>
      <trkpt lat="45.26726" lon="5.84285">
        <ele>464.79998779297</ele>
        <time>2012-05-30T16:18:26.000Z</time>
      </trkpt>
      <trkpt lat="45.26728" lon="5.84288">
        <ele>465.79998779297</ele>
        <time>2012-05-30T16:18:29.000Z</time>
      </trkpt>
      <trkpt lat="45.26723" lon="5.84304">
        <ele>465.79998779297</ele>
        <time>2012-05-30T16:18:33.000Z</time>
      </trkpt>
      <trkpt lat="45.26709" lon="5.84314">
        <ele>463.79998779297</ele>
        <time>2012-05-30T16:18:37.000Z</time>
      </trkpt>
      <trkpt lat="45.26705" lon="5.84316">
        <ele>463</ele>
        <time>2012-05-30T16:18:38.000Z</time>
      </trkpt>
      <trkpt lat="45.26698" lon="5.84326">
        <ele>462.39999389648</ele>
        <time>2012-05-30T16:18:43.000Z</time>
      </trkpt>
      <trkpt lat="45.26693" lon="5.84334">
        <ele>462</ele>
        <time>2012-05-30T16:18:49.000Z</time>
      </trkpt>
      <trkpt lat="45.26682" lon="5.84347">
        <ele>460</ele>
        <time>2012-05-30T16:18:53.000Z</time>
      </trkpt>
      <trkpt lat="45.2667" lon="5.84342">
        <ele>455.20001220703</ele>
        <time>2012-05-30T16:18:58.000Z</time>
      </trkpt>
      <trkpt lat="45.26671" lon="5.84343">
        <ele>454.79998779297</ele>
        <time>2012-05-30T16:19:00.000Z</time>
      </trkpt>
      <trkpt lat="45.26672" lon="5.84352">
        <ele>455.79998779297</ele>
        <time>2012-05-30T16:19:05.000Z</time>
      </trkpt>
      <trkpt lat="45.26667" lon="5.84368">
        <ele>453.79998779297</ele>
        <time>2012-05-30T16:19:09.000Z</time>
      </trkpt>
      <trkpt lat="45.26655" lon="5.84398">
        <ele>450.79998779297</ele>
        <time>2012-05-30T16:19:14.000Z</time>
      </trkpt>
      <trkpt lat="45.2665" lon="5.84409">
        <ele>449.39999389648</ele>
        <time>2012-05-30T16:19:16.000Z</time>
      </trkpt>
      <trkpt lat="45.26642" lon="5.84427">
        <ele>446.60000610352</ele>
        <time>2012-05-30T16:19:19.000Z</time>
      </trkpt>
      <trkpt lat="45.26637" lon="5.84445">
        <ele>443.60000610352</ele>
        <time>2012-05-30T16:19:22.000Z</time>
      </trkpt>
      <trkpt lat="45.26632" lon="5.84464">
        <ele>442.20001220703</ele>
        <time>2012-05-30T16:19:26.000Z</time>
      </trkpt>
      <trkpt lat="45.2663" lon="5.84482">
        <ele>438.79998779297</ele>
        <time>2012-05-30T16:19:31.000Z</time>
      </trkpt>
      <trkpt lat="45.26631" lon="5.84484">
        <ele>438.79998779297</ele>
        <time>2012-05-30T16:19:34.000Z</time>
      </trkpt>
      <trkpt lat="45.26638" lon="5.84484">
        <ele>438.79998779297</ele>
        <time>2012-05-30T16:19:39.000Z</time>
      </trkpt>
      <trkpt lat="45.26641" lon="5.84483">
        <ele>438.79998779297</ele>
        <time>2012-05-30T16:19:40.000Z</time>
      </trkpt>
      <trkpt lat="45.26647" lon="5.84487">
        <ele>442.20001220703</ele>
        <time>2012-05-30T16:19:45.000Z</time>
      </trkpt>
      <trkpt lat="45.26647" lon="5.84483">
        <ele>444.60000610352</ele>
        <time>2012-05-30T16:19:49.000Z</time>
      </trkpt>
      <trkpt lat="45.26645" lon="5.84494">
        <ele>448.39999389648</ele>
        <time>2012-05-30T16:19:55.000Z</time>
      </trkpt>
      <trkpt lat="45.26645" lon="5.84495">
        <ele>449.39999389648</ele>
        <time>2012-05-30T16:19:56.000Z</time>
      </trkpt>
      <trkpt lat="45.26652" lon="5.84504">
        <ele>451.39999389648</ele>
        <time>2012-05-30T16:20:03.000Z</time>
      </trkpt>
      <trkpt lat="45.26655" lon="5.8451">
        <ele>451.39999389648</ele>
        <time>2012-05-30T16:20:07.000Z</time>
      </trkpt>
      <trkpt lat="45.26656" lon="5.84511">
        <ele>452.39999389648</ele>
        <time>2012-05-30T16:20:09.000Z</time>
      </trkpt>
      <trkpt lat="45.26659" lon="5.84513">
        <ele>452.79998779297</ele>
        <time>2012-05-30T16:20:13.000Z</time>
      </trkpt>
      <trkpt lat="45.26662" lon="5.84522">
        <ele>453.20001220703</ele>
        <time>2012-05-30T16:20:18.000Z</time>
      </trkpt>
      <trkpt lat="45.2667" lon="5.84519">
        <ele>452.39999389648</ele>
        <time>2012-05-30T16:20:24.000Z</time>
      </trkpt>
      <trkpt lat="45.26678" lon="5.8452">
        <ele>453.20001220703</ele>
        <time>2012-05-30T16:20:28.000Z</time>
      </trkpt>
      <trkpt lat="45.2668" lon="5.84521">
        <ele>453.79998779297</ele>
        <time>2012-05-30T16:20:29.000Z</time>
      </trkpt>
      <trkpt lat="45.26682" lon="5.84522">
        <ele>454.20001220703</ele>
        <time>2012-05-30T16:20:32.000Z</time>
      </trkpt>
      <trkpt lat="45.26688" lon="5.84511">
        <ele>455.20001220703</ele>
        <time>2012-05-30T16:20:37.000Z</time>
      </trkpt>
      <trkpt lat="45.26689" lon="5.84508">
        <ele>455.79998779297</ele>
        <time>2012-05-30T16:20:38.000Z</time>
      </trkpt>
      <trkpt lat="45.26701" lon="5.84511">
        <ele>455.79998779297</ele>
        <time>2012-05-30T16:20:41.000Z</time>
      </trkpt>
      <trkpt lat="45.26714" lon="5.84523">
        <ele>457.60000610352</ele>
        <time>2012-05-30T16:20:46.000Z</time>
      </trkpt>
      <trkpt lat="45.2672" lon="5.84535">
        <ele>457.60000610352</ele>
        <time>2012-05-30T16:20:51.000Z</time>
      </trkpt>
      <trkpt lat="45.26722" lon="5.84536">
        <ele>457.20001220703</ele>
        <time>2012-05-30T16:20:53.000Z</time>
      </trkpt>
      <trkpt lat="45.2672" lon="5.84539">
        <ele>454.20001220703</ele>
        <time>2012-05-30T16:20:57.000Z</time>
      </trkpt>
      <trkpt lat="45.26709" lon="5.84548">
        <ele>450.79998779297</ele>
        <time>2012-05-30T16:21:02.000Z</time>
      </trkpt>
      <trkpt lat="45.26694" lon="5.84567">
        <ele>450</ele>
        <time>2012-05-30T16:21:07.000Z</time>
      </trkpt>
      <trkpt lat="45.26682" lon="5.8458">
        <ele>450</ele>
        <time>2012-05-30T16:21:11.000Z</time>
      </trkpt>
      <trkpt lat="45.26673" lon="5.84587">
        <ele>449.39999389648</ele>
        <time>2012-05-30T16:21:13.000Z</time>
      </trkpt>
      <trkpt lat="45.26661" lon="5.8461">
        <ele>446.60000610352</ele>
        <time>2012-05-30T16:21:18.000Z</time>
      </trkpt>
      <trkpt lat="45.26659" lon="5.84617">
        <ele>444.20001220703</ele>
        <time>2012-05-30T16:21:21.000Z</time>
      </trkpt>
      <trkpt lat="45.26657" lon="5.84622">
        <ele>441.79998779297</ele>
        <time>2012-05-30T16:21:25.000Z</time>
      </trkpt>
      <trkpt lat="45.26648" lon="5.84631">
        <ele>438.79998779297</ele>
        <time>2012-05-30T16:21:29.000Z</time>
      </trkpt>
      <trkpt lat="45.26643" lon="5.84638">
        <ele>437.39999389648</ele>
        <time>2012-05-30T16:21:31.000Z</time>
      </trkpt>
      <trkpt lat="45.26635" lon="5.84664">
        <ele>438</ele>
        <time>2012-05-30T16:21:36.000Z</time>
      </trkpt>
      <trkpt lat="45.26633" lon="5.8467">
        <ele>437.39999389648</ele>
        <time>2012-05-30T16:21:39.000Z</time>
      </trkpt>
      <trkpt lat="45.26631" lon="5.84673">
        <ele>437.39999389648</ele>
        <time>2012-05-30T16:21:44.000Z</time>
      </trkpt>
      <trkpt lat="45.26632" lon="5.84677">
        <ele>435.60000610352</ele>
        <time>2012-05-30T16:21:49.000Z</time>
      </trkpt>
      <trkpt lat="45.2663" lon="5.84675">
        <ele>435.60000610352</ele>
        <time>2012-05-30T16:21:52.000Z</time>
      </trkpt>
      <trkpt lat="45.26629" lon="5.84675">
        <ele>434.60000610352</ele>
        <time>2012-05-30T16:21:58.000Z</time>
      </trkpt>
      <trkpt lat="45.26629" lon="5.84676">
        <ele>434</ele>
        <time>2012-05-30T16:22:03.000Z</time>
      </trkpt>
      <trkpt lat="45.26638" lon="5.84686">
        <ele>432.60000610352</ele>
        <time>2012-05-30T16:22:07.000Z</time>
      </trkpt>
      <trkpt lat="45.26648" lon="5.84702">
        <ele>432.20001220703</ele>
        <time>2012-05-30T16:22:12.000Z</time>
      </trkpt>
      <trkpt lat="45.26651" lon="5.84719">
        <ele>431.20001220703</ele>
        <time>2012-05-30T16:22:15.000Z</time>
      </trkpt>
      <trkpt lat="45.2665" lon="5.84743">
        <ele>429.20001220703</ele>
        <time>2012-05-30T16:22:19.000Z</time>
      </trkpt>
      <trkpt lat="45.26643" lon="5.84759">
        <ele>427.39999389648</ele>
        <time>2012-05-30T16:22:22.000Z</time>
      </trkpt>
      <trkpt lat="45.26631" lon="5.84778">
        <ele>426</ele>
        <time>2012-05-30T16:22:26.000Z</time>
      </trkpt>
      <trkpt lat="45.26624" lon="5.84786">
        <ele>425</ele>
        <time>2012-05-30T16:22:28.000Z</time>
      </trkpt>
      <trkpt lat="45.26611" lon="5.84806">
        <ele>423</ele>
        <time>2012-05-30T16:22:32.000Z</time>
      </trkpt>
      <trkpt lat="45.26607" lon="5.84821">
        <ele>421</ele>
        <time>2012-05-30T16:22:36.000Z</time>
      </trkpt>
      <trkpt lat="45.26611" lon="5.8483">
        <ele>419.60000610352</ele>
        <time>2012-05-30T16:22:38.000Z</time>
      </trkpt>
      <trkpt lat="45.26624" lon="5.84845">
        <ele>419.20001220703</ele>
        <time>2012-05-30T16:22:42.000Z</time>
      </trkpt>
      <trkpt lat="45.26632" lon="5.84847">
        <ele>420.20001220703</ele>
        <time>2012-05-30T16:22:46.000Z</time>
      </trkpt>
      <trkpt lat="45.26631" lon="5.84848">
        <ele>420.60000610352</ele>
        <time>2012-05-30T16:22:51.000Z</time>
      </trkpt>
      <trkpt lat="45.26616" lon="5.84856">
        <ele>418.60000610352</ele>
        <time>2012-05-30T16:22:56.000Z</time>
      </trkpt>
      <trkpt lat="45.26599" lon="5.84866">
        <ele>416.20001220703</ele>
        <time>2012-05-30T16:23:00.000Z</time>
      </trkpt>
      <trkpt lat="45.26585" lon="5.8488">
        <ele>413.79998779297</ele>
        <time>2012-05-30T16:23:04.000Z</time>
      </trkpt>
      <trkpt lat="45.26566" lon="5.84895">
        <ele>412</ele>
        <time>2012-05-30T16:23:09.000Z</time>
      </trkpt>
      <trkpt lat="45.26563" lon="5.84897">
        <ele>411.39999389648</ele>
        <time>2012-05-30T16:23:10.000Z</time>
      </trkpt>
      <trkpt lat="45.26544" lon="5.84913">
        <ele>410</ele>
        <time>2012-05-30T16:23:17.000Z</time>
      </trkpt>
      <trkpt lat="45.26539" lon="5.84925">
        <ele>408.60000610352</ele>
        <time>2012-05-30T16:23:21.000Z</time>
      </trkpt>
      <trkpt lat="45.26536" lon="5.84935">
        <ele>407.60000610352</ele>
        <time>2012-05-30T16:23:25.000Z</time>
      </trkpt>
      <trkpt lat="45.26533" lon="5.84943">
        <ele>406.60000610352</ele>
        <time>2012-05-30T16:23:28.000Z</time>
      </trkpt>
      <trkpt lat="45.26533" lon="5.8494">
        <ele>405.79998779297</ele>
        <time>2012-05-30T16:23:34.000Z</time>
      </trkpt>
      <trkpt lat="45.26534" lon="5.84935">
        <ele>405.20001220703</ele>
        <time>2012-05-30T16:23:38.000Z</time>
      </trkpt>
      <trkpt lat="45.2654" lon="5.84921">
        <ele>406.20001220703</ele>
        <time>2012-05-30T16:23:43.000Z</time>
      </trkpt>
      <trkpt lat="45.26543" lon="5.8491">
        <ele>405.20001220703</ele>
        <time>2012-05-30T16:23:47.000Z</time>
      </trkpt>
      <trkpt lat="45.26539" lon="5.84908">
        <ele>407.60000610352</ele>
        <time>2012-05-30T16:23:52.000Z</time>
      </trkpt>
      <trkpt lat="45.26541" lon="5.84908">
        <ele>405.79998779297</ele>
        <time>2012-05-30T16:24:06.000Z</time>
      </trkpt>
      <trkpt lat="45.26543" lon="5.84907">
        <ele>406.20001220703</ele>
        <time>2012-05-30T16:24:10.000Z</time>
      </trkpt>
      <trkpt lat="45.26548" lon="5.84889">
        <ele>406.60000610352</ele>
        <time>2012-05-30T16:24:15.000Z</time>
      </trkpt>
      <trkpt lat="45.26549" lon="5.84877">
        <ele>407.20001220703</ele>
        <time>2012-05-30T16:24:19.000Z</time>
      </trkpt>
      <trkpt lat="45.26549" lon="5.84878">
        <ele>407.20001220703</ele>
        <time>2012-05-30T16:24:24.000Z</time>
      </trkpt>
      <trkpt lat="45.26547" lon="5.84883">
        <ele>408.20001220703</ele>
        <time>2012-05-30T16:24:28.000Z</time>
      </trkpt>
      <trkpt lat="45.26547" lon="5.84887">
        <ele>409</ele>
        <time>2012-05-30T16:24:32.000Z</time>
      </trkpt>
      <trkpt lat="45.26545" lon="5.84887">
        <ele>409</ele>
        <time>2012-05-30T16:24:34.000Z</time>
      </trkpt>
      <trkpt lat="45.26541" lon="5.84886">
        <ele>409.60000610352</ele>
        <time>2012-05-30T16:24:37.000Z</time>
      </trkpt>
      <trkpt lat="45.26541" lon="5.84889">
        <ele>409.60000610352</ele>
        <time>2012-05-30T16:24:42.000Z</time>
      </trkpt>
      <trkpt lat="45.2654" lon="5.84892">
        <ele>409.60000610352</ele>
        <time>2012-05-30T16:24:44.000Z</time>
      </trkpt>
      <trkpt lat="45.26534" lon="5.84901">
        <ele>408.60000610352</ele>
        <time>2012-05-30T16:24:48.000Z</time>
      </trkpt>
      <trkpt lat="45.26531" lon="5.84901">
        <ele>409</ele>
        <time>2012-05-30T16:24:54.000Z</time>
      </trkpt>
      <trkpt lat="45.26521" lon="5.84899">
        <ele>409</ele>
        <time>2012-05-30T16:24:58.000Z</time>
      </trkpt>
      <trkpt lat="45.26519" lon="5.84911">
        <ele>410</ele>
        <time>2012-05-30T16:25:00.000Z</time>
      </trkpt>
      <trkpt lat="45.26523" lon="5.84925">
        <ele>409.60000610352</ele>
        <time>2012-05-30T16:25:03.000Z</time>
      </trkpt>
      <trkpt lat="45.26528" lon="5.8493">
        <ele>410.60000610352</ele>
        <time>2012-05-30T16:25:06.000Z</time>
      </trkpt>
      <trkpt lat="45.26531" lon="5.84938">
        <ele>410.60000610352</ele>
        <time>2012-05-30T16:25:10.000Z</time>
      </trkpt>
      <trkpt lat="45.26524" lon="5.84957">
        <ele>406.60000610352</ele>
        <time>2012-05-30T16:25:14.000Z</time>
      </trkpt>
      <trkpt lat="45.26521" lon="5.84962">
        <ele>405.79998779297</ele>
        <time>2012-05-30T16:25:15.000Z</time>
      </trkpt>
      <trkpt lat="45.26501" lon="5.84992">
        <ele>401.79998779297</ele>
        <time>2012-05-30T16:25:21.000Z</time>
      </trkpt>
      <trkpt lat="45.26488" lon="5.85007">
        <ele>399</ele>
        <time>2012-05-30T16:25:25.000Z</time>
      </trkpt>
      <trkpt lat="45.26465" lon="5.85021">
        <ele>395.20001220703</ele>
        <time>2012-05-30T16:25:31.000Z</time>
      </trkpt>
      <trkpt lat="45.26461" lon="5.8502">
        <ele>394.20001220703</ele>
        <time>2012-05-30T16:25:32.000Z</time>
      </trkpt>
      <trkpt lat="45.26434" lon="5.85013">
        <ele>391.20001220703</ele>
        <time>2012-05-30T16:25:38.000Z</time>
      </trkpt>
      <trkpt lat="45.2643" lon="5.85012">
        <ele>390.79998779297</ele>
        <time>2012-05-30T16:25:39.000Z</time>
      </trkpt>
      <trkpt lat="45.26422" lon="5.8501">
        <ele>389.79998779297</ele>
        <time>2012-05-30T16:25:41.000Z</time>
      </trkpt>
      <trkpt lat="45.26401" lon="5.85011">
        <ele>389.39999389648</ele>
        <time>2012-05-30T16:25:46.000Z</time>
      </trkpt>
      <trkpt lat="45.26385" lon="5.8502">
        <ele>388.79998779297</ele>
        <time>2012-05-30T16:25:50.000Z</time>
      </trkpt>
      <trkpt lat="45.26374" lon="5.85022">
        <ele>388.39999389648</ele>
        <time>2012-05-30T16:25:54.000Z</time>
      </trkpt>
      <trkpt lat="45.2637" lon="5.8502">
        <ele>388.79998779297</ele>
        <time>2012-05-30T16:25:58.000Z</time>
      </trkpt>
      <trkpt lat="45.26362" lon="5.85014">
        <ele>388.79998779297</ele>
        <time>2012-05-30T16:26:02.000Z</time>
      </trkpt>
      <trkpt lat="45.2636" lon="5.85012">
        <ele>388.39999389648</ele>
        <time>2012-05-30T16:26:03.000Z</time>
      </trkpt>
      <trkpt lat="45.2636" lon="5.85">
        <ele>388.79998779297</ele>
        <time>2012-05-30T16:26:07.000Z</time>
      </trkpt>
      <trkpt lat="45.26361" lon="5.84998">
        <ele>388.39999389648</ele>
        <time>2012-05-30T16:26:11.000Z</time>
      </trkpt>
      <trkpt lat="45.26363" lon="5.85013">
        <ele>387</ele>
        <time>2012-05-30T16:26:15.000Z</time>
      </trkpt>
      <trkpt lat="45.2637" lon="5.85024">
        <ele>386</ele>
        <time>2012-05-30T16:26:18.000Z</time>
      </trkpt>
      <trkpt lat="45.2638" lon="5.85026">
        <ele>386.39999389648</ele>
        <time>2012-05-30T16:26:21.000Z</time>
      </trkpt>
      <trkpt lat="45.26394" lon="5.8502">
        <ele>388</ele>
        <time>2012-05-30T16:26:25.000Z</time>
      </trkpt>
      <trkpt lat="45.26399" lon="5.85018">
        <ele>388.79998779297</ele>
        <time>2012-05-30T16:26:27.000Z</time>
      </trkpt>
      <trkpt lat="45.26419" lon="5.85016">
        <ele>391.20001220703</ele>
        <time>2012-05-30T16:26:33.000Z</time>
      </trkpt>
      <trkpt lat="45.26433" lon="5.85017">
        <ele>391.79998779297</ele>
        <time>2012-05-30T16:26:38.000Z</time>
      </trkpt>
      <trkpt lat="45.26453" lon="5.85019">
        <ele>392.79998779297</ele>
        <time>2012-05-30T16:26:45.000Z</time>
      </trkpt>
      <trkpt lat="45.2646" lon="5.8502">
        <ele>393.20001220703</ele>
        <time>2012-05-30T16:26:48.000Z</time>
      </trkpt>
      <trkpt lat="45.26472" lon="5.85023">
        <ele>395.20001220703</ele>
        <time>2012-05-30T16:26:53.000Z</time>
      </trkpt>
      <trkpt lat="45.26477" lon="5.85026">
        <ele>395.60000610352</ele>
        <time>2012-05-30T16:26:55.000Z</time>
      </trkpt>
      <trkpt lat="45.26479" lon="5.85027">
        <ele>396.20001220703</ele>
        <time>2012-05-30T16:27:01.000Z</time>
      </trkpt>
      <trkpt lat="45.2648" lon="5.85029">
        <ele>395.60000610352</ele>
        <time>2012-05-30T16:27:06.000Z</time>
      </trkpt>
      <trkpt lat="45.26492" lon="5.85045">
        <ele>395.20001220703</ele>
        <time>2012-05-30T16:27:11.000Z</time>
      </trkpt>
      <trkpt lat="45.26502" lon="5.85054">
        <ele>395.60000610352</ele>
        <time>2012-05-30T16:27:14.000Z</time>
      </trkpt>
      <trkpt lat="45.2652" lon="5.85072">
        <ele>396.60000610352</ele>
        <time>2012-05-30T16:27:19.000Z</time>
      </trkpt>
      <trkpt lat="45.26538" lon="5.85087">
        <ele>396.20001220703</ele>
        <time>2012-05-30T16:27:24.000Z</time>
      </trkpt>
      <trkpt lat="45.26548" lon="5.85108">
        <ele>394.60000610352</ele>
        <time>2012-05-30T16:27:28.000Z</time>
      </trkpt>
      <trkpt lat="45.26548" lon="5.85121">
        <ele>393.20001220703</ele>
        <time>2012-05-30T16:27:30.000Z</time>
      </trkpt>
      <trkpt lat="45.26553" lon="5.85142">
        <ele>391.79998779297</ele>
        <time>2012-05-30T16:27:34.000Z</time>
      </trkpt>
      <trkpt lat="45.26559" lon="5.85149">
        <ele>391.20001220703</ele>
        <time>2012-05-30T16:27:36.000Z</time>
      </trkpt>
      <trkpt lat="45.26573" lon="5.8516">
        <ele>390.39999389648</ele>
        <time>2012-05-30T16:27:40.000Z</time>
      </trkpt>
      <trkpt lat="45.26595" lon="5.8517">
        <ele>389.39999389648</ele>
        <time>2012-05-30T16:27:46.000Z</time>
      </trkpt>
      <trkpt lat="45.26609" lon="5.85169">
        <ele>388</ele>
        <time>2012-05-30T16:27:50.000Z</time>
      </trkpt>
      <trkpt lat="45.26623" lon="5.85166">
        <ele>388</ele>
        <time>2012-05-30T16:27:54.000Z</time>
      </trkpt>
      <trkpt lat="45.26639" lon="5.85167">
        <ele>388.39999389648</ele>
        <time>2012-05-30T16:27:59.000Z</time>
      </trkpt>
      <trkpt lat="45.26656" lon="5.85166">
        <ele>388.79998779297</ele>
        <time>2012-05-30T16:28:04.000Z</time>
      </trkpt>
      <trkpt lat="45.26669" lon="5.85156">
        <ele>390.79998779297</ele>
        <time>2012-05-30T16:28:09.000Z</time>
      </trkpt>
      <trkpt lat="45.26674" lon="5.85136">
        <ele>393.20001220703</ele>
        <time>2012-05-30T16:28:15.000Z</time>
      </trkpt>
      <trkpt lat="45.2668" lon="5.85113">
        <ele>394.60000610352</ele>
        <time>2012-05-30T16:28:22.000Z</time>
      </trkpt>
      <trkpt lat="45.26684" lon="5.85087">
        <ele>398</ele>
        <time>2012-05-30T16:28:29.000Z</time>
      </trkpt>
      <trkpt lat="45.26689" lon="5.85056">
        <ele>401.39999389648</ele>
        <time>2012-05-30T16:28:38.000Z</time>
      </trkpt>
      <trkpt lat="45.26689" lon="5.85035">
        <ele>403.79998779297</ele>
        <time>2012-05-30T16:28:44.000Z</time>
      </trkpt>
      <trkpt lat="45.26688" lon="5.85011">
        <ele>406.60000610352</ele>
        <time>2012-05-30T16:28:51.000Z</time>
      </trkpt>
      <trkpt lat="45.2669" lon="5.84983">
        <ele>409</ele>
        <time>2012-05-30T16:28:58.000Z</time>
      </trkpt>
      <trkpt lat="45.26691" lon="5.84965">
        <ele>411</ele>
        <time>2012-05-30T16:29:02.000Z</time>
      </trkpt>
      <trkpt lat="45.26694" lon="5.84947">
        <ele>411.39999389648</ele>
        <time>2012-05-30T16:29:06.000Z</time>
      </trkpt>
      <trkpt lat="45.26696" lon="5.84935">
        <ele>413</ele>
        <time>2012-05-30T16:29:09.000Z</time>
      </trkpt>
      <trkpt lat="45.26702" lon="5.84916">
        <ele>413.39999389648</ele>
        <time>2012-05-30T16:29:14.000Z</time>
      </trkpt>
      <trkpt lat="45.2671" lon="5.849">
        <ele>415.39999389648</ele>
        <time>2012-05-30T16:29:19.000Z</time>
      </trkpt>
      <trkpt lat="45.26719" lon="5.84886">
        <ele>417.79998779297</ele>
        <time>2012-05-30T16:29:24.000Z</time>
      </trkpt>
      <trkpt lat="45.26727" lon="5.84875">
        <ele>419.60000610352</ele>
        <time>2012-05-30T16:29:28.000Z</time>
      </trkpt>
      <trkpt lat="45.26738" lon="5.84862">
        <ele>422</ele>
        <time>2012-05-30T16:29:33.000Z</time>
      </trkpt>
      <trkpt lat="45.26749" lon="5.84849">
        <ele>423.39999389648</ele>
        <time>2012-05-30T16:29:38.000Z</time>
      </trkpt>
      <trkpt lat="45.26759" lon="5.84839">
        <ele>424.39999389648</ele>
        <time>2012-05-30T16:29:43.000Z</time>
      </trkpt>
      <trkpt lat="45.26765" lon="5.84831">
        <ele>425</ele>
        <time>2012-05-30T16:29:46.000Z</time>
      </trkpt>
      <trkpt lat="45.26772" lon="5.8482">
        <ele>426</ele>
        <time>2012-05-30T16:29:50.000Z</time>
      </trkpt>
      <trkpt lat="45.26783" lon="5.84806">
        <ele>430.20001220703</ele>
        <time>2012-05-30T16:29:56.000Z</time>
      </trkpt>
      <trkpt lat="45.26788" lon="5.84798">
        <ele>432.60000610352</ele>
        <time>2012-05-30T16:29:59.000Z</time>
      </trkpt>
      <trkpt lat="45.26792" lon="5.84798">
        <ele>432.60000610352</ele>
        <time>2012-05-30T16:30:04.000Z</time>
      </trkpt>
      <trkpt lat="45.26793" lon="5.84793">
        <ele>433.20001220703</ele>
        <time>2012-05-30T16:30:08.000Z</time>
      </trkpt>
      <trkpt lat="45.26804" lon="5.84785">
        <ele>434.60000610352</ele>
        <time>2012-05-30T16:30:17.000Z</time>
      </trkpt>
      <trkpt lat="45.26813" lon="5.84773">
        <ele>435</ele>
        <time>2012-05-30T16:30:22.000Z</time>
      </trkpt>
      <trkpt lat="45.26826" lon="5.84759">
        <ele>436</ele>
        <time>2012-05-30T16:30:27.000Z</time>
      </trkpt>
      <trkpt lat="45.26837" lon="5.84745">
        <ele>435.60000610352</ele>
        <time>2012-05-30T16:30:32.000Z</time>
      </trkpt>
      <trkpt lat="45.26841" lon="5.84742">
        <ele>436</ele>
        <time>2012-05-30T16:30:34.000Z</time>
      </trkpt>
      <trkpt lat="45.26847" lon="5.84738">
        <ele>437.39999389648</ele>
        <time>2012-05-30T16:30:39.000Z</time>
      </trkpt>
      <trkpt lat="45.26851" lon="5.84741">
        <ele>437</ele>
        <time>2012-05-30T16:30:43.000Z</time>
      </trkpt>
      <trkpt lat="45.26862" lon="5.84747">
        <ele>435.60000610352</ele>
        <time>2012-05-30T16:30:47.000Z</time>
      </trkpt>
      <trkpt lat="45.26878" lon="5.8476">
        <ele>435</ele>
        <time>2012-05-30T16:30:52.000Z</time>
      </trkpt>
      <trkpt lat="45.26895" lon="5.84773">
        <ele>434.60000610352</ele>
        <time>2012-05-30T16:30:57.000Z</time>
      </trkpt>
      <trkpt lat="45.26908" lon="5.84777">
        <ele>434.60000610352</ele>
        <time>2012-05-30T16:31:01.000Z</time>
      </trkpt>
      <trkpt lat="45.26922" lon="5.84772">
        <ele>434.60000610352</ele>
        <time>2012-05-30T16:31:06.000Z</time>
      </trkpt>
      <trkpt lat="45.2693" lon="5.84768">
        <ele>434.60000610352</ele>
        <time>2012-05-30T16:31:10.000Z</time>
      </trkpt>
      <trkpt lat="45.26938" lon="5.84773">
        <ele>435</ele>
        <time>2012-05-30T16:31:15.000Z</time>
      </trkpt>
      <trkpt lat="45.26946" lon="5.84783">
        <ele>436</ele>
        <time>2012-05-30T16:31:19.000Z</time>
      </trkpt>
      <trkpt lat="45.26946" lon="5.84791">
        <ele>436.39999389648</ele>
        <time>2012-05-30T16:31:23.000Z</time>
      </trkpt>
      <trkpt lat="45.26943" lon="5.84798">
        <ele>437</ele>
        <time>2012-05-30T16:31:27.000Z</time>
      </trkpt>
      <trkpt lat="45.26934" lon="5.84817">
        <ele>435</ele>
        <time>2012-05-30T16:31:32.000Z</time>
      </trkpt>
      <trkpt lat="45.26931" lon="5.84824">
        <ele>434</ele>
        <time>2012-05-30T16:31:36.000Z</time>
      </trkpt>
      <trkpt lat="45.26932" lon="5.84826">
        <ele>434</ele>
        <time>2012-05-30T16:31:44.000Z</time>
      </trkpt>
      <trkpt lat="45.26931" lon="5.8484">
        <ele>434</ele>
        <time>2012-05-30T16:31:48.000Z</time>
      </trkpt>
      <trkpt lat="45.26923" lon="5.84862">
        <ele>434</ele>
        <time>2012-05-30T16:31:53.000Z</time>
      </trkpt>
      <trkpt lat="45.26917" lon="5.84881">
        <ele>434</ele>
        <time>2012-05-30T16:31:57.000Z</time>
      </trkpt>
      <trkpt lat="45.26913" lon="5.84905">
        <ele>432.20001220703</ele>
        <time>2012-05-30T16:32:01.000Z</time>
      </trkpt>
      <trkpt lat="45.26912" lon="5.84913">
        <ele>431.60000610352</ele>
        <time>2012-05-30T16:32:02.000Z</time>
      </trkpt>
      <trkpt lat="45.269" lon="5.84941">
        <ele>428.79998779297</ele>
        <time>2012-05-30T16:32:07.000Z</time>
      </trkpt>
      <trkpt lat="45.26894" lon="5.84957">
        <ele>424</ele>
        <time>2012-05-30T16:32:11.000Z</time>
      </trkpt>
      <trkpt lat="45.26896" lon="5.84977">
        <ele>421</ele>
        <time>2012-05-30T16:32:15.000Z</time>
      </trkpt>
      <trkpt lat="45.26894" lon="5.84992">
        <ele>420.20001220703</ele>
        <time>2012-05-30T16:32:19.000Z</time>
      </trkpt>
      <trkpt lat="45.26894" lon="5.84995">
        <ele>419.60000610352</ele>
        <time>2012-05-30T16:32:23.000Z</time>
      </trkpt>
      <trkpt lat="45.26905" lon="5.85011">
        <ele>419.60000610352</ele>
        <time>2012-05-30T16:32:28.000Z</time>
      </trkpt>
      <trkpt lat="45.26908" lon="5.85015">
        <ele>419.20001220703</ele>
        <time>2012-05-30T16:32:29.000Z</time>
      </trkpt>
      <trkpt lat="45.26905" lon="5.85018">
        <ele>418.60000610352</ele>
        <time>2012-05-30T16:32:33.000Z</time>
      </trkpt>
      <trkpt lat="45.26891" lon="5.85023">
        <ele>417.79998779297</ele>
        <time>2012-05-30T16:32:37.000Z</time>
      </trkpt>
      <trkpt lat="45.26887" lon="5.85032">
        <ele>416.79998779297</ele>
        <time>2012-05-30T16:32:39.000Z</time>
      </trkpt>
      <trkpt lat="45.26875" lon="5.85054">
        <ele>415.79998779297</ele>
        <time>2012-05-30T16:32:43.000Z</time>
      </trkpt>
      <trkpt lat="45.26872" lon="5.85059">
        <ele>415.39999389648</ele>
        <time>2012-05-30T16:32:44.000Z</time>
      </trkpt>
      <trkpt lat="45.26856" lon="5.8509">
        <ele>411</ele>
        <time>2012-05-30T16:32:50.000Z</time>
      </trkpt>
      <trkpt lat="45.26854" lon="5.85094">
        <ele>410</ele>
        <time>2012-05-30T16:32:51.000Z</time>
      </trkpt>
      <trkpt lat="45.26851" lon="5.851">
        <ele>408.20001220703</ele>
        <time>2012-05-30T16:32:55.000Z</time>
      </trkpt>
      <trkpt lat="45.26852" lon="5.85098">
        <ele>408.60000610352</ele>
        <time>2012-05-30T16:32:58.000Z</time>
      </trkpt>
      <trkpt lat="45.26866" lon="5.85109">
        <ele>408.20001220703</ele>
        <time>2012-05-30T16:33:03.000Z</time>
      </trkpt>
      <trkpt lat="45.26876" lon="5.85118">
        <ele>407.20001220703</ele>
        <time>2012-05-30T16:33:07.000Z</time>
      </trkpt>
      <trkpt lat="45.26881" lon="5.85141">
        <ele>406.20001220703</ele>
        <time>2012-05-30T16:33:12.000Z</time>
      </trkpt>
      <trkpt lat="45.26872" lon="5.85166">
        <ele>404.79998779297</ele>
        <time>2012-05-30T16:33:16.000Z</time>
      </trkpt>
      <trkpt lat="45.26862" lon="5.85194">
        <ele>403.39999389648</ele>
        <time>2012-05-30T16:33:20.000Z</time>
      </trkpt>
      <trkpt lat="45.26871" lon="5.85206">
        <ele>401</ele>
        <time>2012-05-30T16:33:23.000Z</time>
      </trkpt>
      <trkpt lat="45.26876" lon="5.85209">
        <ele>400</ele>
        <time>2012-05-30T16:33:24.000Z</time>
      </trkpt>
      <trkpt lat="45.26893" lon="5.85224">
        <ele>398</ele>
        <time>2012-05-30T16:33:28.000Z</time>
      </trkpt>
      <trkpt lat="45.26916" lon="5.85241">
        <ele>395.60000610352</ele>
        <time>2012-05-30T16:33:33.000Z</time>
      </trkpt>
      <trkpt lat="45.26929" lon="5.8525">
        <ele>395.60000610352</ele>
        <time>2012-05-30T16:33:36.000Z</time>
      </trkpt>
      <trkpt lat="45.26942" lon="5.85255">
        <ele>395.20001220703</ele>
        <time>2012-05-30T16:33:39.000Z</time>
      </trkpt>
      <trkpt lat="45.2696" lon="5.85263">
        <ele>394.20001220703</ele>
        <time>2012-05-30T16:33:43.000Z</time>
      </trkpt>
      <trkpt lat="45.26972" lon="5.85272">
        <ele>393.20001220703</ele>
        <time>2012-05-30T16:33:46.000Z</time>
      </trkpt>
      <trkpt lat="45.26988" lon="5.85281">
        <ele>392.79998779297</ele>
        <time>2012-05-30T16:33:50.000Z</time>
      </trkpt>
      <trkpt lat="45.27005" lon="5.85286">
        <ele>392.20001220703</ele>
        <time>2012-05-30T16:33:55.000Z</time>
      </trkpt>
      <trkpt lat="45.27014" lon="5.85276">
        <ele>392.79998779297</ele>
        <time>2012-05-30T16:33:59.000Z</time>
      </trkpt>
      <trkpt lat="45.27016" lon="5.85274">
        <ele>394.60000610352</ele>
        <time>2012-05-30T16:34:03.000Z</time>
      </trkpt>
      <trkpt lat="45.27015" lon="5.85277">
        <ele>395.20001220703</ele>
        <time>2012-05-30T16:34:05.000Z</time>
      </trkpt>
      <trkpt lat="45.27015" lon="5.85293">
        <ele>393.20001220703</ele>
        <time>2012-05-30T16:34:10.000Z</time>
      </trkpt>
      <trkpt lat="45.27018" lon="5.85295">
        <ele>392.79998779297</ele>
        <time>2012-05-30T16:34:11.000Z</time>
      </trkpt>
      <trkpt lat="45.27038" lon="5.85305">
        <ele>391.20001220703</ele>
        <time>2012-05-30T16:34:17.000Z</time>
      </trkpt>
      <trkpt lat="45.27058" lon="5.85309">
        <ele>391.20001220703</ele>
        <time>2012-05-30T16:34:22.000Z</time>
      </trkpt>
      <trkpt lat="45.27074" lon="5.85311">
        <ele>391.20001220703</ele>
        <time>2012-05-30T16:34:26.000Z</time>
      </trkpt>
      <trkpt lat="45.27086" lon="5.85311">
        <ele>391.79998779297</ele>
        <time>2012-05-30T16:34:29.000Z</time>
      </trkpt>
      <trkpt lat="45.27106" lon="5.85311">
        <ele>392.20001220703</ele>
        <time>2012-05-30T16:34:34.000Z</time>
      </trkpt>
      <trkpt lat="45.27118" lon="5.85303">
        <ele>394.20001220703</ele>
        <time>2012-05-30T16:34:38.000Z</time>
      </trkpt>
      <trkpt lat="45.27122" lon="5.85278">
        <ele>396.60000610352</ele>
        <time>2012-05-30T16:34:44.000Z</time>
      </trkpt>
      <trkpt lat="45.27124" lon="5.85256">
        <ele>400</ele>
        <time>2012-05-30T16:34:49.000Z</time>
      </trkpt>
      <trkpt lat="45.27125" lon="5.85236">
        <ele>403.39999389648</ele>
        <time>2012-05-30T16:34:54.000Z</time>
      </trkpt>
      <trkpt lat="45.27125" lon="5.8522">
        <ele>405.79998779297</ele>
        <time>2012-05-30T16:34:58.000Z</time>
      </trkpt>
      <trkpt lat="45.27128" lon="5.85201">
        <ele>409.60000610352</ele>
        <time>2012-05-30T16:35:03.000Z</time>
      </trkpt>
      <trkpt lat="45.27131" lon="5.85186">
        <ele>410.60000610352</ele>
        <time>2012-05-30T16:35:07.000Z</time>
      </trkpt>
      <trkpt lat="45.27142" lon="5.85179">
        <ele>412.39999389648</ele>
        <time>2012-05-30T16:35:11.000Z</time>
      </trkpt>
      <trkpt lat="45.27157" lon="5.85167">
        <ele>414.79998779297</ele>
        <time>2012-05-30T16:35:17.000Z</time>
      </trkpt>
      <trkpt lat="45.27159" lon="5.85166">
        <ele>415.39999389648</ele>
        <time>2012-05-30T16:35:18.000Z</time>
      </trkpt>
      <trkpt lat="45.27168" lon="5.85155">
        <ele>417.79998779297</ele>
        <time>2012-05-30T16:35:23.000Z</time>
      </trkpt>
      <trkpt lat="45.27171" lon="5.85151">
        <ele>417.20001220703</ele>
        <time>2012-05-30T16:35:28.000Z</time>
      </trkpt>
      <trkpt lat="45.27172" lon="5.85146">
        <ele>418.20001220703</ele>
        <time>2012-05-30T16:35:35.000Z</time>
      </trkpt>
      <trkpt lat="45.27175" lon="5.85145">
        <ele>418.20001220703</ele>
        <time>2012-05-30T16:35:40.000Z</time>
      </trkpt>
      <trkpt lat="45.27181" lon="5.85141">
        <ele>419.60000610352</ele>
        <time>2012-05-30T16:35:46.000Z</time>
      </trkpt>
      <trkpt lat="45.27182" lon="5.85136">
        <ele>419.60000610352</ele>
        <time>2012-05-30T16:35:49.000Z</time>
      </trkpt>
      <trkpt lat="45.2718" lon="5.85128">
        <ele>417.79998779297</ele>
        <time>2012-05-30T16:35:55.000Z</time>
      </trkpt>
      <trkpt lat="45.27178" lon="5.85125">
        <ele>418.20001220703</ele>
        <time>2012-05-30T16:36:02.000Z</time>
      </trkpt>
      <trkpt lat="45.27181" lon="5.8512">
        <ele>416.79998779297</ele>
        <time>2012-05-30T16:36:07.000Z</time>
      </trkpt>
      <trkpt lat="45.27185" lon="5.85119">
        <ele>419.20001220703</ele>
        <time>2012-05-30T16:36:12.000Z</time>
      </trkpt>
      <trkpt lat="45.27186" lon="5.85119">
        <ele>420.20001220703</ele>
        <time>2012-05-30T16:36:13.000Z</time>
      </trkpt>
      <trkpt lat="45.27195" lon="5.85118">
        <ele>422</ele>
        <time>2012-05-30T16:36:18.000Z</time>
      </trkpt>
      <trkpt lat="45.272" lon="5.85113">
        <ele>426.79998779297</ele>
        <time>2012-05-30T16:36:25.000Z</time>
      </trkpt>
      <trkpt lat="45.27203" lon="5.85108">
        <ele>424.39999389648</ele>
        <time>2012-05-30T16:36:31.000Z</time>
      </trkpt>
      <trkpt lat="45.27203" lon="5.85104">
        <ele>426.79998779297</ele>
        <time>2012-05-30T16:36:36.000Z</time>
      </trkpt>
      <trkpt lat="45.27201" lon="5.85099">
        <ele>429.79998779297</ele>
        <time>2012-05-30T16:36:41.000Z</time>
      </trkpt>
      <trkpt lat="45.27203" lon="5.85095">
        <ele>426.79998779297</ele>
        <time>2012-05-30T16:36:45.000Z</time>
      </trkpt>
      <trkpt lat="45.27205" lon="5.8509">
        <ele>427.39999389648</ele>
        <time>2012-05-30T16:36:50.000Z</time>
      </trkpt>
      <trkpt lat="45.27206" lon="5.85087">
        <ele>430.79998779297</ele>
        <time>2012-05-30T16:36:56.000Z</time>
      </trkpt>
      <trkpt lat="45.2721" lon="5.85083">
        <ele>430.79998779297</ele>
        <time>2012-05-30T16:37:02.000Z</time>
      </trkpt>
      <trkpt lat="45.27214" lon="5.85081">
        <ele>427.39999389648</ele>
        <time>2012-05-30T16:37:08.000Z</time>
      </trkpt>
      <trkpt lat="45.27214" lon="5.8508">
        <ele>428.39999389648</ele>
        <time>2012-05-30T16:37:13.000Z</time>
      </trkpt>
      <trkpt lat="45.27212" lon="5.85078">
        <ele>427.79998779297</ele>
        <time>2012-05-30T16:37:17.000Z</time>
      </trkpt>
      <trkpt lat="45.27209" lon="5.85079">
        <ele>428.79998779297</ele>
        <time>2012-05-30T16:37:20.000Z</time>
      </trkpt>
      <trkpt lat="45.27199" lon="5.8507">
        <ele>428.39999389648</ele>
        <time>2012-05-30T16:37:26.000Z</time>
      </trkpt>
      <trkpt lat="45.27203" lon="5.85067">
        <ele>427.79998779297</ele>
        <time>2012-05-30T16:37:30.000Z</time>
      </trkpt>
      <trkpt lat="45.27208" lon="5.85066">
        <ele>428.39999389648</ele>
        <time>2012-05-30T16:37:32.000Z</time>
      </trkpt>
      <trkpt lat="45.27212" lon="5.85065">
        <ele>427.79998779297</ele>
        <time>2012-05-30T16:37:34.000Z</time>
      </trkpt>
      <trkpt lat="45.27218" lon="5.85059">
        <ele>434</ele>
        <time>2012-05-30T16:37:40.000Z</time>
      </trkpt>
      <trkpt lat="45.27225" lon="5.85059">
        <ele>435</ele>
        <time>2012-05-30T16:37:44.000Z</time>
      </trkpt>
      <trkpt lat="45.27226" lon="5.85058">
        <ele>436.39999389648</ele>
        <time>2012-05-30T16:37:47.000Z</time>
      </trkpt>
      <trkpt lat="45.2723" lon="5.85055">
        <ele>439.79998779297</ele>
        <time>2012-05-30T16:37:51.000Z</time>
      </trkpt>
      <trkpt lat="45.27235" lon="5.85049">
        <ele>442.20001220703</ele>
        <time>2012-05-30T16:37:58.000Z</time>
      </trkpt>
      <trkpt lat="45.2724" lon="5.85046">
        <ele>444.20001220703</ele>
        <time>2012-05-30T16:38:04.000Z</time>
      </trkpt>
      <trkpt lat="45.27245" lon="5.85049">
        <ele>446.60000610352</ele>
        <time>2012-05-30T16:38:11.000Z</time>
      </trkpt>
      <trkpt lat="45.27247" lon="5.85047">
        <ele>449.39999389648</ele>
        <time>2012-05-30T16:38:16.000Z</time>
      </trkpt>
      <trkpt lat="45.27252" lon="5.85044">
        <ele>457.20001220703</ele>
        <time>2012-05-30T16:38:22.000Z</time>
      </trkpt>
      <trkpt lat="45.27255" lon="5.85043">
        <ele>456.60000610352</ele>
        <time>2012-05-30T16:38:26.000Z</time>
      </trkpt>
      <trkpt lat="45.27257" lon="5.8504">
        <ele>460</ele>
        <time>2012-05-30T16:38:31.000Z</time>
      </trkpt>
      <trkpt lat="45.2726" lon="5.85035">
        <ele>460.60000610352</ele>
        <time>2012-05-30T16:38:35.000Z</time>
      </trkpt>
      <trkpt lat="45.27257" lon="5.85025">
        <ele>460.60000610352</ele>
        <time>2012-05-30T16:38:40.000Z</time>
      </trkpt>
      <trkpt lat="45.27252" lon="5.85013">
        <ele>461.39999389648</ele>
        <time>2012-05-30T16:38:45.000Z</time>
      </trkpt>
      <trkpt lat="45.27251" lon="5.85002">
        <ele>461.39999389648</ele>
        <time>2012-05-30T16:38:49.000Z</time>
      </trkpt>
      <trkpt lat="45.27257" lon="5.84989">
        <ele>459</ele>
        <time>2012-05-30T16:38:56.000Z</time>
      </trkpt>
      <trkpt lat="45.27261" lon="5.84986">
        <ele>460.60000610352</ele>
        <time>2012-05-30T16:39:00.000Z</time>
      </trkpt>
      <trkpt lat="45.27268" lon="5.84984">
        <ele>458.20001220703</ele>
        <time>2012-05-30T16:39:05.000Z</time>
      </trkpt>
      <trkpt lat="45.27275" lon="5.84984">
        <ele>458.20001220703</ele>
        <time>2012-05-30T16:39:09.000Z</time>
      </trkpt>
      <trkpt lat="45.2728" lon="5.8498">
        <ele>458.60000610352</ele>
        <time>2012-05-30T16:39:14.000Z</time>
      </trkpt>
      <trkpt lat="45.27283" lon="5.84977">
        <ele>458.60000610352</ele>
        <time>2012-05-30T16:39:17.000Z</time>
      </trkpt>
      <trkpt lat="45.2729" lon="5.8497">
        <ele>461</ele>
        <time>2012-05-30T16:39:24.000Z</time>
      </trkpt>
      <trkpt lat="45.27294" lon="5.84969">
        <ele>463.79998779297</ele>
        <time>2012-05-30T16:39:30.000Z</time>
      </trkpt>
      <trkpt lat="45.27301" lon="5.84965">
        <ele>468.20001220703</ele>
        <time>2012-05-30T16:39:35.000Z</time>
      </trkpt>
      <trkpt lat="45.27299" lon="5.84965">
        <ele>469.60000610352</ele>
        <time>2012-05-30T16:39:40.000Z</time>
      </trkpt>
      <trkpt lat="45.27299" lon="5.84961">
        <ele>468.60000610352</ele>
        <time>2012-05-30T16:39:42.000Z</time>
      </trkpt>
      <trkpt lat="45.27299" lon="5.84958">
        <ele>468.60000610352</ele>
        <time>2012-05-30T16:39:44.000Z</time>
      </trkpt>
      <trkpt lat="45.27299" lon="5.84951">
        <ele>468.20001220703</ele>
        <time>2012-05-30T16:39:50.000Z</time>
      </trkpt>
      <trkpt lat="45.273" lon="5.84948">
        <ele>466.79998779297</ele>
        <time>2012-05-30T16:39:55.000Z</time>
      </trkpt>
      <trkpt lat="45.273" lon="5.84945">
        <ele>466.79998779297</ele>
        <time>2012-05-30T16:40:01.000Z</time>
      </trkpt>
      <trkpt lat="45.27299" lon="5.84941">
        <ele>467.20001220703</ele>
        <time>2012-05-30T16:40:06.000Z</time>
      </trkpt>
      <trkpt lat="45.27299" lon="5.84938">
        <ele>469.60000610352</ele>
        <time>2012-05-30T16:40:15.000Z</time>
      </trkpt>
      <trkpt lat="45.273" lon="5.84932">
        <ele>468.60000610352</ele>
        <time>2012-05-30T16:40:21.000Z</time>
      </trkpt>
      <trkpt lat="45.27302" lon="5.84932">
        <ele>469.60000610352</ele>
        <time>2012-05-30T16:40:25.000Z</time>
      </trkpt>
      <trkpt lat="45.27301" lon="5.84935">
        <ele>472.60000610352</ele>
        <time>2012-05-30T16:40:28.000Z</time>
      </trkpt>
      <trkpt lat="45.27303" lon="5.84942">
        <ele>473</ele>
        <time>2012-05-30T16:40:32.000Z</time>
      </trkpt>
      <trkpt lat="45.27305" lon="5.84942">
        <ele>471</ele>
        <time>2012-05-30T16:40:34.000Z</time>
      </trkpt>
      <trkpt lat="45.27307" lon="5.84945">
        <ele>470.20001220703</ele>
        <time>2012-05-30T16:40:36.000Z</time>
      </trkpt>
      <trkpt lat="45.27309" lon="5.8495">
        <ele>467.79998779297</ele>
        <time>2012-05-30T16:40:41.000Z</time>
      </trkpt>
      <trkpt lat="45.27312" lon="5.84947">
        <ele>466.79998779297</ele>
        <time>2012-05-30T16:40:45.000Z</time>
      </trkpt>
      <trkpt lat="45.27316" lon="5.84949">
        <ele>467.20001220703</ele>
        <time>2012-05-30T16:40:50.000Z</time>
      </trkpt>
      <trkpt lat="45.27314" lon="5.84946">
        <ele>467.79998779297</ele>
        <time>2012-05-30T16:40:52.000Z</time>
      </trkpt>
      <trkpt lat="45.27305" lon="5.84944">
        <ele>468.60000610352</ele>
        <time>2012-05-30T16:40:56.000Z</time>
      </trkpt>
      <trkpt lat="45.27302" lon="5.84942">
        <ele>468.60000610352</ele>
        <time>2012-05-30T16:40:59.000Z</time>
      </trkpt>
      <trkpt lat="45.27302" lon="5.84935">
        <ele>468.60000610352</ele>
        <time>2012-05-30T16:41:04.000Z</time>
      </trkpt>
      <trkpt lat="45.27302" lon="5.84929">
        <ele>466.79998779297</ele>
        <time>2012-05-30T16:41:08.000Z</time>
      </trkpt>
      <trkpt lat="45.27307" lon="5.84925">
        <ele>463.79998779297</ele>
        <time>2012-05-30T16:41:15.000Z</time>
      </trkpt>
      <trkpt lat="45.2731" lon="5.84923">
        <ele>463</ele>
        <time>2012-05-30T16:41:19.000Z</time>
      </trkpt>
      <trkpt lat="45.27313" lon="5.84922">
        <ele>463</ele>
        <time>2012-05-30T16:41:26.000Z</time>
      </trkpt>
      <trkpt lat="45.27318" lon="5.84937">
        <ele>462.39999389648</ele>
        <time>2012-05-30T16:41:31.000Z</time>
      </trkpt>
      <trkpt lat="45.27319" lon="5.84934">
        <ele>462</ele>
        <time>2012-05-30T16:41:32.000Z</time>
      </trkpt>
      <trkpt lat="45.27317" lon="5.84921">
        <ele>463</ele>
        <time>2012-05-30T16:41:38.000Z</time>
      </trkpt>
      <trkpt lat="45.27319" lon="5.84908">
        <ele>457.60000610352</ele>
        <time>2012-05-30T16:41:43.000Z</time>
      </trkpt>
      <trkpt lat="45.27323" lon="5.84889">
        <ele>466.79998779297</ele>
        <time>2012-05-30T16:41:49.000Z</time>
      </trkpt>
      <trkpt lat="45.27323" lon="5.84875">
        <ele>466.20001220703</ele>
        <time>2012-05-30T16:41:55.000Z</time>
      </trkpt>
      <trkpt lat="45.27328" lon="5.84865">
        <ele>470.20001220703</ele>
        <time>2012-05-30T16:41:59.000Z</time>
      </trkpt>
      <trkpt lat="45.2733" lon="5.8485">
        <ele>466.20001220703</ele>
        <time>2012-05-30T16:42:03.000Z</time>
      </trkpt>
      <trkpt lat="45.27339" lon="5.84836">
        <ele>464.39999389648</ele>
        <time>2012-05-30T16:42:08.000Z</time>
      </trkpt>
      <trkpt lat="45.27345" lon="5.84828">
        <ele>464.39999389648</ele>
        <time>2012-05-30T16:42:12.000Z</time>
      </trkpt>
      <trkpt lat="45.27352" lon="5.84815">
        <ele>463.79998779297</ele>
        <time>2012-05-30T16:42:17.000Z</time>
      </trkpt>
      <trkpt lat="45.2736" lon="5.84804">
        <ele>469.20001220703</ele>
        <time>2012-05-30T16:42:22.000Z</time>
      </trkpt>
      <trkpt lat="45.27363" lon="5.84797">
        <ele>472.60000610352</ele>
        <time>2012-05-30T16:42:26.000Z</time>
      </trkpt>
      <trkpt lat="45.2737" lon="5.84784">
        <ele>481.60000610352</ele>
        <time>2012-05-30T16:42:31.000Z</time>
      </trkpt>
      <trkpt lat="45.27377" lon="5.84775">
        <ele>485</ele>
        <time>2012-05-30T16:42:37.000Z</time>
      </trkpt>
      <trkpt lat="45.27382" lon="5.84762">
        <ele>483</ele>
        <time>2012-05-30T16:42:43.000Z</time>
      </trkpt>
      <trkpt lat="45.27382" lon="5.8476">
        <ele>482.60000610352</ele>
        <time>2012-05-30T16:42:44.000Z</time>
      </trkpt>
      <trkpt lat="45.27387" lon="5.84749">
        <ele>481.60000610352</ele>
        <time>2012-05-30T16:42:51.000Z</time>
      </trkpt>
      <trkpt lat="45.27387" lon="5.84745">
        <ele>483.60000610352</ele>
        <time>2012-05-30T16:42:54.000Z</time>
      </trkpt>
      <trkpt lat="45.27388" lon="5.84732">
        <ele>499.39999389648</ele>
        <time>2012-05-30T16:43:00.000Z</time>
      </trkpt>
      <trkpt lat="45.27389" lon="5.84725">
        <ele>502.39999389648</ele>
        <time>2012-05-30T16:43:04.000Z</time>
      </trkpt>
      <trkpt lat="45.27387" lon="5.84712">
        <ele>504.79998779297</ele>
        <time>2012-05-30T16:43:09.000Z</time>
      </trkpt>
      <trkpt lat="45.27384" lon="5.84699">
        <ele>502.79998779297</ele>
        <time>2012-05-30T16:43:12.000Z</time>
      </trkpt>
      <trkpt lat="45.2738" lon="5.84689">
        <ele>501.79998779297</ele>
        <time>2012-05-30T16:43:15.000Z</time>
      </trkpt>
      <trkpt lat="45.27365" lon="5.84687">
        <ele>503.79998779297</ele>
        <time>2012-05-30T16:43:20.000Z</time>
      </trkpt>
      <trkpt lat="45.27363" lon="5.84685">
        <ele>503.20001220703</ele>
        <time>2012-05-30T16:43:21.000Z</time>
      </trkpt>
      <trkpt lat="45.27363" lon="5.84673">
        <ele>502.39999389648</ele>
        <time>2012-05-30T16:43:26.000Z</time>
      </trkpt>
      <trkpt lat="45.27363" lon="5.84671">
        <ele>501.79998779297</ele>
        <time>2012-05-30T16:43:29.000Z</time>
      </trkpt>
      <trkpt lat="45.27364" lon="5.84669">
        <ele>500.39999389648</ele>
        <time>2012-05-30T16:43:30.000Z</time>
      </trkpt>
      <trkpt lat="45.27366" lon="5.84663">
        <ele>500.79998779297</ele>
        <time>2012-05-30T16:43:33.000Z</time>
      </trkpt>
      <trkpt lat="45.27364" lon="5.84669">
        <ele>505.20001220703</ele>
        <time>2012-05-30T16:43:37.000Z</time>
      </trkpt>
      <trkpt lat="45.27363" lon="5.84673">
        <ele>507.20001220703</ele>
        <time>2012-05-30T16:43:40.000Z</time>
      </trkpt>
      <trkpt lat="45.27358" lon="5.84682">
        <ele>510.39999389648</ele>
        <time>2012-05-30T16:43:44.000Z</time>
      </trkpt>
      <trkpt lat="45.27353" lon="5.8468">
        <ele>508</ele>
        <time>2012-05-30T16:43:47.000Z</time>
      </trkpt>
      <trkpt lat="45.27342" lon="5.8467">
        <ele>504.79998779297</ele>
        <time>2012-05-30T16:43:51.000Z</time>
      </trkpt>
      <trkpt lat="45.27334" lon="5.84652">
        <ele>502.39999389648</ele>
        <time>2012-05-30T16:43:55.000Z</time>
      </trkpt>
      <trkpt lat="45.27334" lon="5.8464">
        <ele>501.79998779297</ele>
        <time>2012-05-30T16:43:58.000Z</time>
      </trkpt>
      <trkpt lat="45.27333" lon="5.84635">
        <ele>501.79998779297</ele>
        <time>2012-05-30T16:44:00.000Z</time>
      </trkpt>
      <trkpt lat="45.27329" lon="5.84626">
        <ele>500.79998779297</ele>
        <time>2012-05-30T16:44:04.000Z</time>
      </trkpt>
      <trkpt lat="45.27328" lon="5.84624">
        <ele>501.39999389648</ele>
        <time>2012-05-30T16:44:05.000Z</time>
      </trkpt>
      <trkpt lat="45.27326" lon="5.84614">
        <ele>505.60000610352</ele>
        <time>2012-05-30T16:44:10.000Z</time>
      </trkpt>
      <trkpt lat="45.27318" lon="5.846">
        <ele>503.79998779297</ele>
        <time>2012-05-30T16:44:16.000Z</time>
      </trkpt>
      <trkpt lat="45.2731" lon="5.84586">
        <ele>501.79998779297</ele>
        <time>2012-05-30T16:44:20.000Z</time>
      </trkpt>
      <trkpt lat="45.27302" lon="5.84572">
        <ele>506.20001220703</ele>
        <time>2012-05-30T16:44:24.000Z</time>
      </trkpt>
      <trkpt lat="45.273" lon="5.84571">
        <ele>508.60000610352</ele>
        <time>2012-05-30T16:44:26.000Z</time>
      </trkpt>
      <trkpt lat="45.27294" lon="5.84573">
        <ele>512.40002441406</ele>
        <time>2012-05-30T16:44:31.000Z</time>
      </trkpt>
      <trkpt lat="45.27288" lon="5.84573">
        <ele>511</ele>
        <time>2012-05-30T16:44:33.000Z</time>
      </trkpt>
      <trkpt lat="45.27283" lon="5.84567">
        <ele>510</ele>
        <time>2012-05-30T16:44:37.000Z</time>
      </trkpt>
      <trkpt lat="45.2728" lon="5.84561">
        <ele>508.60000610352</ele>
        <time>2012-05-30T16:44:40.000Z</time>
      </trkpt>
      <trkpt lat="45.27271" lon="5.84547">
        <ele>505.20001220703</ele>
        <time>2012-05-30T16:44:45.000Z</time>
      </trkpt>
      <trkpt lat="45.27266" lon="5.84535">
        <ele>502.79998779297</ele>
        <time>2012-05-30T16:44:49.000Z</time>
      </trkpt>
      <trkpt lat="45.27255" lon="5.84523">
        <ele>505.20001220703</ele>
        <time>2012-05-30T16:44:54.000Z</time>
      </trkpt>
      <trkpt lat="45.27247" lon="5.84505">
        <ele>506.60000610352</ele>
        <time>2012-05-30T16:44:59.000Z</time>
      </trkpt>
      <trkpt lat="45.27243" lon="5.84499">
        <ele>507.60000610352</ele>
        <time>2012-05-30T16:45:02.000Z</time>
      </trkpt>
      <trkpt lat="45.27242" lon="5.84495">
        <ele>509.60000610352</ele>
        <time>2012-05-30T16:45:04.000Z</time>
      </trkpt>
      <trkpt lat="45.27238" lon="5.84495">
        <ele>516.20001220703</ele>
        <time>2012-05-30T16:45:10.000Z</time>
      </trkpt>
      <trkpt lat="45.27238" lon="5.84489">
        <ele>508.60000610352</ele>
        <time>2012-05-30T16:45:15.000Z</time>
      </trkpt>
      <trkpt lat="45.27237" lon="5.845">
        <ele>506.20001220703</ele>
        <time>2012-05-30T16:45:20.000Z</time>
      </trkpt>
      <trkpt lat="45.27234" lon="5.84503">
        <ele>507.60000610352</ele>
        <time>2012-05-30T16:45:22.000Z</time>
      </trkpt>
      <trkpt lat="45.27228" lon="5.84507">
        <ele>504.79998779297</ele>
        <time>2012-05-30T16:45:27.000Z</time>
      </trkpt>
      <trkpt lat="45.27227" lon="5.84507">
        <ele>504.20001220703</ele>
        <time>2012-05-30T16:45:34.000Z</time>
      </trkpt>
      <trkpt lat="45.27231" lon="5.84503">
        <ele>504.79998779297</ele>
        <time>2012-05-30T16:45:38.000Z</time>
      </trkpt>
      <trkpt lat="45.27237" lon="5.84494">
        <ele>507.20001220703</ele>
        <time>2012-05-30T16:45:44.000Z</time>
      </trkpt>
      <trkpt lat="45.27238" lon="5.84487">
        <ele>508</ele>
        <time>2012-05-30T16:45:48.000Z</time>
      </trkpt>
      <trkpt lat="45.27235" lon="5.84472">
        <ele>507.60000610352</ele>
        <time>2012-05-30T16:45:52.000Z</time>
      </trkpt>
      <trkpt lat="45.27227" lon="5.84462">
        <ele>511.39999389648</ele>
        <time>2012-05-30T16:45:56.000Z</time>
      </trkpt>
      <trkpt lat="45.27219" lon="5.84446">
        <ele>512</ele>
        <time>2012-05-30T16:46:01.000Z</time>
      </trkpt>
      <trkpt lat="45.27218" lon="5.84438">
        <ele>511</ele>
        <time>2012-05-30T16:46:03.000Z</time>
      </trkpt>
      <trkpt lat="45.27212" lon="5.84427">
        <ele>510.39999389648</ele>
        <time>2012-05-30T16:46:07.000Z</time>
      </trkpt>
      <trkpt lat="45.272" lon="5.84407">
        <ele>511</ele>
        <time>2012-05-30T16:46:13.000Z</time>
      </trkpt>
      <trkpt lat="45.27188" lon="5.8439">
        <ele>511</ele>
        <time>2012-05-30T16:46:18.000Z</time>
      </trkpt>
      <trkpt lat="45.2718" lon="5.84376">
        <ele>510.39999389648</ele>
        <time>2012-05-30T16:46:21.000Z</time>
      </trkpt>
      <trkpt lat="45.27172" lon="5.84366">
        <ele>509.60000610352</ele>
        <time>2012-05-30T16:46:24.000Z</time>
      </trkpt>
      <trkpt lat="45.27161" lon="5.8436">
        <ele>508</ele>
        <time>2012-05-30T16:46:27.000Z</time>
      </trkpt>
      <trkpt lat="45.27149" lon="5.84349">
        <ele>506.60000610352</ele>
        <time>2012-05-30T16:46:31.000Z</time>
      </trkpt>
      <trkpt lat="45.27144" lon="5.84344">
        <ele>506.20001220703</ele>
        <time>2012-05-30T16:46:33.000Z</time>
      </trkpt>
      <trkpt lat="45.27129" lon="5.84353">
        <ele>502.79998779297</ele>
        <time>2012-05-30T16:46:38.000Z</time>
      </trkpt>
      <trkpt lat="45.27114" lon="5.84358">
        <ele>497</ele>
        <time>2012-05-30T16:46:43.000Z</time>
      </trkpt>
      <trkpt lat="45.27112" lon="5.84359">
        <ele>496</ele>
        <time>2012-05-30T16:46:44.000Z</time>
      </trkpt>
      <trkpt lat="45.27098" lon="5.84374">
        <ele>491.79998779297</ele>
        <time>2012-05-30T16:46:49.000Z</time>
      </trkpt>
      <trkpt lat="45.27081" lon="5.84388">
        <ele>483.60000610352</ele>
        <time>2012-05-30T16:46:54.000Z</time>
      </trkpt>
      <trkpt lat="45.27074" lon="5.84399">
        <ele>477.39999389648</ele>
        <time>2012-05-30T16:46:59.000Z</time>
      </trkpt>
      <trkpt lat="45.27084" lon="5.84406">
        <ele>475.79998779297</ele>
        <time>2012-05-30T16:47:02.000Z</time>
      </trkpt>
      <trkpt lat="45.27097" lon="5.8441">
        <ele>474.39999389648</ele>
        <time>2012-05-30T16:47:06.000Z</time>
      </trkpt>
      <trkpt lat="45.27103" lon="5.84413">
        <ele>474</ele>
        <time>2012-05-30T16:47:08.000Z</time>
      </trkpt>
      <trkpt lat="45.27107" lon="5.84415">
        <ele>475</ele>
        <time>2012-05-30T16:47:13.000Z</time>
      </trkpt>
      <trkpt lat="45.27105" lon="5.84411">
        <ele>479.20001220703</ele>
        <time>2012-05-30T16:47:20.000Z</time>
      </trkpt>
      <trkpt lat="45.27104" lon="5.84409">
        <ele>480.20001220703</ele>
        <time>2012-05-30T16:47:21.000Z</time>
      </trkpt>
      <trkpt lat="45.27105" lon="5.84402">
        <ele>482.60000610352</ele>
        <time>2012-05-30T16:47:26.000Z</time>
      </trkpt>
      <trkpt lat="45.27102" lon="5.84394">
        <ele>485</ele>
        <time>2012-05-30T16:47:32.000Z</time>
      </trkpt>
      <trkpt lat="45.27103" lon="5.8439">
        <ele>486.39999389648</ele>
        <time>2012-05-30T16:47:36.000Z</time>
      </trkpt>
      <trkpt lat="45.27105" lon="5.84392">
        <ele>486.39999389648</ele>
        <time>2012-05-30T16:47:41.000Z</time>
      </trkpt>
      <trkpt lat="45.27103" lon="5.84392">
        <ele>486</ele>
        <time>2012-05-30T16:47:47.000Z</time>
      </trkpt>
      <trkpt lat="45.27096" lon="5.84397">
        <ele>484.60000610352</ele>
        <time>2012-05-30T16:47:52.000Z</time>
      </trkpt>
      <trkpt lat="45.2709" lon="5.84406">
        <ele>487</ele>
        <time>2012-05-30T16:47:56.000Z</time>
      </trkpt>
      <trkpt lat="45.27087" lon="5.84405">
        <ele>487.39999389648</ele>
        <time>2012-05-30T16:47:58.000Z</time>
      </trkpt>
      <trkpt lat="45.27081" lon="5.84406">
        <ele>490.39999389648</ele>
        <time>2012-05-30T16:48:03.000Z</time>
      </trkpt>
      <trkpt lat="45.2708" lon="5.84415">
        <ele>487.39999389648</ele>
        <time>2012-05-30T16:48:07.000Z</time>
      </trkpt>
      <trkpt lat="45.27083" lon="5.84423">
        <ele>487</ele>
        <time>2012-05-30T16:48:09.000Z</time>
      </trkpt>
      <trkpt lat="45.27091" lon="5.84451">
        <ele>485</ele>
        <time>2012-05-30T16:48:14.000Z</time>
      </trkpt>
      <trkpt lat="45.27101" lon="5.84475">
        <ele>481.20001220703</ele>
        <time>2012-05-30T16:48:18.000Z</time>
      </trkpt>
      <trkpt lat="45.27106" lon="5.84486">
        <ele>479.79998779297</ele>
        <time>2012-05-30T16:48:20.000Z</time>
      </trkpt>
      <trkpt lat="45.27115" lon="5.84506">
        <ele>477.79998779297</ele>
        <time>2012-05-30T16:48:24.000Z</time>
      </trkpt>
      <trkpt lat="45.27124" lon="5.84541">
        <ele>470.60000610352</ele>
        <time>2012-05-30T16:48:30.000Z</time>
      </trkpt>
      <trkpt lat="45.27124" lon="5.84559">
        <ele>468.20001220703</ele>
        <time>2012-05-30T16:48:33.000Z</time>
      </trkpt>
      <trkpt lat="45.27129" lon="5.84585">
        <ele>464.39999389648</ele>
        <time>2012-05-30T16:48:37.000Z</time>
      </trkpt>
      <trkpt lat="45.27139" lon="5.84606">
        <ele>460</ele>
        <time>2012-05-30T16:48:41.000Z</time>
      </trkpt>
      <trkpt lat="45.27148" lon="5.84628">
        <ele>457.60000610352</ele>
        <time>2012-05-30T16:48:45.000Z</time>
      </trkpt>
      <trkpt lat="45.27152" lon="5.84652">
        <ele>455.20001220703</ele>
        <time>2012-05-30T16:48:50.000Z</time>
      </trkpt>
      <trkpt lat="45.27151" lon="5.84656">
        <ele>453.79998779297</ele>
        <time>2012-05-30T16:48:53.000Z</time>
      </trkpt>
      <trkpt lat="45.2715" lon="5.84658">
        <ele>454.20001220703</ele>
        <time>2012-05-30T16:48:56.000Z</time>
      </trkpt>
      <trkpt lat="45.27151" lon="5.8467">
        <ele>454.20001220703</ele>
        <time>2012-05-30T16:49:02.000Z</time>
      </trkpt>
      <trkpt lat="45.27145" lon="5.84684">
        <ele>456.20001220703</ele>
        <time>2012-05-30T16:49:06.000Z</time>
      </trkpt>
      <trkpt lat="45.27141" lon="5.84689">
        <ele>458.20001220703</ele>
        <time>2012-05-30T16:49:10.000Z</time>
      </trkpt>
      <trkpt lat="45.27136" lon="5.84688">
        <ele>459.60000610352</ele>
        <time>2012-05-30T16:49:15.000Z</time>
      </trkpt>
      <trkpt lat="45.27134" lon="5.84684">
        <ele>457.20001220703</ele>
        <time>2012-05-30T16:49:18.000Z</time>
      </trkpt>
      <trkpt lat="45.27137" lon="5.84672">
        <ele>455.20001220703</ele>
        <time>2012-05-30T16:49:23.000Z</time>
      </trkpt>
      <trkpt lat="45.27133" lon="5.8466">
        <ele>454.79998779297</ele>
        <time>2012-05-30T16:49:27.000Z</time>
      </trkpt>
      <trkpt lat="45.27132" lon="5.84656">
        <ele>455.79998779297</ele>
        <time>2012-05-30T16:49:30.000Z</time>
      </trkpt>
      <trkpt lat="45.27129" lon="5.84653">
        <ele>457.20001220703</ele>
        <time>2012-05-30T16:49:38.000Z</time>
      </trkpt>
      <trkpt lat="45.2713" lon="5.8465">
        <ele>454.79998779297</ele>
        <time>2012-05-30T16:49:43.000Z</time>
      </trkpt>
      <trkpt lat="45.27128" lon="5.84648">
        <ele>454.79998779297</ele>
        <time>2012-05-30T16:49:45.000Z</time>
      </trkpt>
      <trkpt lat="45.27125" lon="5.84645">
        <ele>455.79998779297</ele>
        <time>2012-05-30T16:49:47.000Z</time>
      </trkpt>
      <trkpt lat="45.27114" lon="5.84649">
        <ele>461.39999389648</ele>
        <time>2012-05-30T16:49:52.000Z</time>
      </trkpt>
      <trkpt lat="45.27103" lon="5.84648">
        <ele>464.79998779297</ele>
        <time>2012-05-30T16:49:56.000Z</time>
      </trkpt>
      <trkpt lat="45.271" lon="5.84647">
        <ele>464.79998779297</ele>
        <time>2012-05-30T16:49:57.000Z</time>
      </trkpt>
      <trkpt lat="45.27082" lon="5.84645">
        <ele>464.79998779297</ele>
        <time>2012-05-30T16:50:02.000Z</time>
      </trkpt>
      <trkpt lat="45.27062" lon="5.84643">
        <ele>465.39999389648</ele>
        <time>2012-05-30T16:50:07.000Z</time>
      </trkpt>
      <trkpt lat="45.27052" lon="5.84634">
        <ele>464.39999389648</ele>
        <time>2012-05-30T16:50:12.000Z</time>
      </trkpt>
      <trkpt lat="45.27044" lon="5.84628">
        <ele>462.39999389648</ele>
        <time>2012-05-30T16:50:17.000Z</time>
      </trkpt>
      <trkpt lat="45.2703" lon="5.84621">
        <ele>462.39999389648</ele>
        <time>2012-05-30T16:50:22.000Z</time>
      </trkpt>
      <trkpt lat="45.27016" lon="5.84603">
        <ele>461.39999389648</ele>
        <time>2012-05-30T16:50:28.000Z</time>
      </trkpt>
      <trkpt lat="45.27003" lon="5.84597">
        <ele>463</ele>
        <time>2012-05-30T16:50:32.000Z</time>
      </trkpt>
      <trkpt lat="45.26993" lon="5.84584">
        <ele>463.79998779297</ele>
        <time>2012-05-30T16:50:37.000Z</time>
      </trkpt>
      <trkpt lat="45.26984" lon="5.84567">
        <ele>462.39999389648</ele>
        <time>2012-05-30T16:50:42.000Z</time>
      </trkpt>
      <trkpt lat="45.26976" lon="5.84556">
        <ele>463.79998779297</ele>
        <time>2012-05-30T16:50:46.000Z</time>
      </trkpt>
      <trkpt lat="45.26961" lon="5.84552">
        <ele>464.39999389648</ele>
        <time>2012-05-30T16:50:51.000Z</time>
      </trkpt>
      <trkpt lat="45.26948" lon="5.8455">
        <ele>464.79998779297</ele>
        <time>2012-05-30T16:50:55.000Z</time>
      </trkpt>
      <trkpt lat="45.26947" lon="5.84547">
        <ele>464.39999389648</ele>
        <time>2012-05-30T16:51:00.000Z</time>
      </trkpt>
      <trkpt lat="45.26947" lon="5.84544">
        <ele>464.39999389648</ele>
        <time>2012-05-30T16:51:02.000Z</time>
      </trkpt>
      <trkpt lat="45.26943" lon="5.84532">
        <ele>462</ele>
        <time>2012-05-30T16:51:10.000Z</time>
      </trkpt>
      <trkpt lat="45.26944" lon="5.8453">
        <ele>461.39999389648</ele>
        <time>2012-05-30T16:51:12.000Z</time>
      </trkpt>
      <trkpt lat="45.26948" lon="5.84536">
        <ele>462</ele>
        <time>2012-05-30T16:51:16.000Z</time>
      </trkpt>
      <trkpt lat="45.26956" lon="5.84548">
        <ele>462</ele>
        <time>2012-05-30T16:51:20.000Z</time>
      </trkpt>
      <trkpt lat="45.26966" lon="5.8454">
        <ele>462</ele>
        <time>2012-05-30T16:51:24.000Z</time>
      </trkpt>
      <trkpt lat="45.26968" lon="5.84537">
        <ele>461.39999389648</ele>
        <time>2012-05-30T16:51:25.000Z</time>
      </trkpt>
      <trkpt lat="45.26977" lon="5.84518">
        <ele>460.60000610352</ele>
        <time>2012-05-30T16:51:31.000Z</time>
      </trkpt>
      <trkpt lat="45.26983" lon="5.84507">
        <ele>461</ele>
        <time>2012-05-30T16:51:35.000Z</time>
      </trkpt>
      <trkpt lat="45.26991" lon="5.84489">
        <ele>463</ele>
        <time>2012-05-30T16:51:41.000Z</time>
      </trkpt>
      <trkpt lat="45.26997" lon="5.84474">
        <ele>463.39999389648</ele>
        <time>2012-05-30T16:51:46.000Z</time>
      </trkpt>
      <trkpt lat="45.27006" lon="5.8446">
        <ele>465.39999389648</ele>
        <time>2012-05-30T16:51:51.000Z</time>
      </trkpt>
      <trkpt lat="45.27011" lon="5.84449">
        <ele>467.79998779297</ele>
        <time>2012-05-30T16:51:55.000Z</time>
      </trkpt>
      <trkpt lat="45.27012" lon="5.84447">
        <ele>468.20001220703</ele>
        <time>2012-05-30T16:51:56.000Z</time>
      </trkpt>
      <trkpt lat="45.27008" lon="5.84437">
        <ele>471.60000610352</ele>
        <time>2012-05-30T16:52:02.000Z</time>
      </trkpt>
      <trkpt lat="45.26993" lon="5.84419">
        <ele>475</ele>
        <time>2012-05-30T16:52:08.000Z</time>
      </trkpt>
      <trkpt lat="45.26982" lon="5.84406">
        <ele>476.79998779297</ele>
        <time>2012-05-30T16:52:13.000Z</time>
      </trkpt>
      <trkpt lat="45.26974" lon="5.84392">
        <ele>478.20001220703</ele>
        <time>2012-05-30T16:52:17.000Z</time>
      </trkpt>
      <trkpt lat="45.26964" lon="5.84377">
        <ele>480.20001220703</ele>
        <time>2012-05-30T16:52:23.000Z</time>
      </trkpt>
      <trkpt lat="45.26957" lon="5.8437">
        <ele>481.20001220703</ele>
        <time>2012-05-30T16:52:26.000Z</time>
      </trkpt>
      <trkpt lat="45.26951" lon="5.84359">
        <ele>481.60000610352</ele>
        <time>2012-05-30T16:52:31.000Z</time>
      </trkpt>
      <trkpt lat="45.26949" lon="5.84357">
        <ele>482.60000610352</ele>
        <time>2012-05-30T16:52:33.000Z</time>
      </trkpt>
      <trkpt lat="45.26946" lon="5.84352">
        <ele>482.20001220703</ele>
        <time>2012-05-30T16:52:36.000Z</time>
      </trkpt>
      <trkpt lat="45.26941" lon="5.8435">
        <ele>483</ele>
        <time>2012-05-30T16:52:39.000Z</time>
      </trkpt>
      <trkpt lat="45.26934" lon="5.8434">
        <ele>480.60000610352</ele>
        <time>2012-05-30T16:52:45.000Z</time>
      </trkpt>
      <trkpt lat="45.2693" lon="5.84337">
        <ele>481.60000610352</ele>
        <time>2012-05-30T16:52:48.000Z</time>
      </trkpt>
      <trkpt lat="45.26923" lon="5.84334">
        <ele>482.60000610352</ele>
        <time>2012-05-30T16:52:52.000Z</time>
      </trkpt>
      <trkpt lat="45.26918" lon="5.84337">
        <ele>482.60000610352</ele>
        <time>2012-05-30T16:52:58.000Z</time>
      </trkpt>
      <trkpt lat="45.26914" lon="5.8434">
        <ele>482.60000610352</ele>
        <time>2012-05-30T16:53:02.000Z</time>
      </trkpt>
      <trkpt lat="45.26911" lon="5.84345">
        <ele>480.60000610352</ele>
        <time>2012-05-30T16:53:08.000Z</time>
      </trkpt>
      <trkpt lat="45.26909" lon="5.84347">
        <ele>479.79998779297</ele>
        <time>2012-05-30T16:53:10.000Z</time>
      </trkpt>
      <trkpt lat="45.26902" lon="5.84357">
        <ele>479.79998779297</ele>
        <time>2012-05-30T16:53:15.000Z</time>
      </trkpt>
      <trkpt lat="45.26886" lon="5.84367">
        <ele>482.20001220703</ele>
        <time>2012-05-30T16:53:20.000Z</time>
      </trkpt>
      <trkpt lat="45.26873" lon="5.84384">
        <ele>477.79998779297</ele>
        <time>2012-05-30T16:53:25.000Z</time>
      </trkpt>
      <trkpt lat="45.26865" lon="5.84398">
        <ele>475</ele>
        <time>2012-05-30T16:53:29.000Z</time>
      </trkpt>
      <trkpt lat="45.26863" lon="5.84409">
        <ele>472.60000610352</ele>
        <time>2012-05-30T16:53:32.000Z</time>
      </trkpt>
      <trkpt lat="45.26862" lon="5.84417">
        <ele>472.60000610352</ele>
        <time>2012-05-30T16:53:34.000Z</time>
      </trkpt>
      <trkpt lat="45.26857" lon="5.84422">
        <ele>471</ele>
        <time>2012-05-30T16:53:36.000Z</time>
      </trkpt>
      <trkpt lat="45.2685" lon="5.84443">
        <ele>467.20001220703</ele>
        <time>2012-05-30T16:53:42.000Z</time>
      </trkpt>
      <trkpt lat="45.2684" lon="5.84448">
        <ele>465.39999389648</ele>
        <time>2012-05-30T16:53:46.000Z</time>
      </trkpt>
      <trkpt lat="45.26827" lon="5.84446">
        <ele>466.20001220703</ele>
        <time>2012-05-30T16:53:50.000Z</time>
      </trkpt>
      <trkpt lat="45.26815" lon="5.84445">
        <ele>467.79998779297</ele>
        <time>2012-05-30T16:53:54.000Z</time>
      </trkpt>
      <trkpt lat="45.26807" lon="5.8444">
        <ele>468.60000610352</ele>
        <time>2012-05-30T16:53:58.000Z</time>
      </trkpt>
      <trkpt lat="45.26805" lon="5.84441">
        <ele>470.60000610352</ele>
        <time>2012-05-30T16:54:05.000Z</time>
      </trkpt>
      <trkpt lat="45.26804" lon="5.8444">
        <ele>470.20001220703</ele>
        <time>2012-05-30T16:54:06.000Z</time>
      </trkpt>
      <trkpt lat="45.26799" lon="5.84425">
        <ele>468.60000610352</ele>
        <time>2012-05-30T16:54:11.000Z</time>
      </trkpt>
      <trkpt lat="45.26792" lon="5.84407">
        <ele>469.60000610352</ele>
        <time>2012-05-30T16:54:15.000Z</time>
      </trkpt>
      <trkpt lat="45.26781" lon="5.84387">
        <ele>470.20001220703</ele>
        <time>2012-05-30T16:54:19.000Z</time>
      </trkpt>
      <trkpt lat="45.26775" lon="5.84378">
        <ele>471</ele>
        <time>2012-05-30T16:54:21.000Z</time>
      </trkpt>
      <trkpt lat="45.26765" lon="5.84346">
        <ele>471.60000610352</ele>
        <time>2012-05-30T16:54:27.000Z</time>
      </trkpt>
      <trkpt lat="45.2676" lon="5.84338">
        <ele>471</ele>
        <time>2012-05-30T16:54:29.000Z</time>
      </trkpt>
      <trkpt lat="45.26754" lon="5.84324">
        <ele>472.60000610352</ele>
        <time>2012-05-30T16:54:32.000Z</time>
      </trkpt>
      <trkpt lat="45.26744" lon="5.84308">
        <ele>473</ele>
        <time>2012-05-30T16:54:36.000Z</time>
      </trkpt>
      <trkpt lat="45.26729" lon="5.84291">
        <ele>475.79998779297</ele>
        <time>2012-05-30T16:54:41.000Z</time>
      </trkpt>
      <trkpt lat="45.26725" lon="5.84288">
        <ele>475.79998779297</ele>
        <time>2012-05-30T16:54:44.000Z</time>
      </trkpt>
      <trkpt lat="45.26721" lon="5.84286">
        <ele>475.39999389648</ele>
        <time>2012-05-30T16:54:50.000Z</time>
      </trkpt>
      <trkpt lat="45.26721" lon="5.84284">
        <ele>475</ele>
        <time>2012-05-30T16:54:51.000Z</time>
      </trkpt>
      <trkpt lat="45.26731" lon="5.84269">
        <ele>473</ele>
        <time>2012-05-30T16:54:57.000Z</time>
      </trkpt>
      <trkpt lat="45.26734" lon="5.84262">
        <ele>473</ele>
        <time>2012-05-30T16:54:59.000Z</time>
      </trkpt>
      <trkpt lat="45.26741" lon="5.8424">
        <ele>473.39999389648</ele>
        <time>2012-05-30T16:55:05.000Z</time>
      </trkpt>
      <trkpt lat="45.26748" lon="5.84223">
        <ele>475</ele>
        <time>2012-05-30T16:55:10.000Z</time>
      </trkpt>
      <trkpt lat="45.26756" lon="5.84213">
        <ele>478.20001220703</ele>
        <time>2012-05-30T16:55:14.000Z</time>
      </trkpt>
      <trkpt lat="45.26768" lon="5.84194">
        <ele>481.60000610352</ele>
        <time>2012-05-30T16:55:20.000Z</time>
      </trkpt>
      <trkpt lat="45.2677" lon="5.84191">
        <ele>481.60000610352</ele>
        <time>2012-05-30T16:55:21.000Z</time>
      </trkpt>
      <trkpt lat="45.26777" lon="5.84179">
        <ele>481.60000610352</ele>
        <time>2012-05-30T16:55:25.000Z</time>
      </trkpt>
      <trkpt lat="45.26783" lon="5.84163">
        <ele>481.60000610352</ele>
        <time>2012-05-30T16:55:30.000Z</time>
      </trkpt>
      <trkpt lat="45.26783" lon="5.84161">
        <ele>481.60000610352</ele>
        <time>2012-05-30T16:55:31.000Z</time>
      </trkpt>
      <trkpt lat="45.26783" lon="5.8416">
        <ele>481.60000610352</ele>
        <time>2012-05-30T16:55:33.000Z</time>
      </trkpt>
    </trkseg>
  </trk>
</gpx>